Time,TemperatureF,DewpointF,PressureIn,WindDirection,WindDirectionDegrees,WindSpeedMPH,WindSpeedGustMPH,Humidity,HourlyPrecipIn,Conditions,Clouds,dailyrainin,SoftwareType,DateUTC
2013-02-04 00:00:00,22.2,20.5,29.71,WNW,292,0.7,2.4,93,0.00,OVC,,0.00,WeatherDisplay:10.37,2013-02-04 05:00:00,
2013-02-04 00:01:00,22.3,20.6,29.71,WNW,292,1.0,2.3,93,0.00,OVC,,0.00,WeatherDisplay:10.37,2013-02-04 05:01:00,
2013-02-04 00:06:00,22.1,20.4,29.71,WNW,292,0.7,1.2,93,0.00,OVC,,0.00,WeatherDisplay:10.37,2013-02-04 05:06:00,
2013-02-04 00:11:00,21.9,20.2,29.71,NW,315,0.0,0.0,93,0.00,OVC,,0.00,WeatherDisplay:10.37,2013-02-04 05:11:00,
2013-02-04 00:16:00,21.7,20.0,29.71,NW,315,0.0,0.0,93,0.00,OVC,,0.00,WeatherDisplay:10.37,2013-02-04 05:16:00,
2013-02-04 00:21:00,21.4,19.7,29.71,NW,315,0.0,0.0,93,0.00,OVC,,0.00,WeatherDisplay:10.37,2013-02-04 05:21:00,
2013-02-04 00:26:00,21.2,19.5,29.72,NW,315,0.0,0.0,93,0.00,OVC,,0.00,WeatherDisplay:10.37,2013-02-04 05:26:00,
2013-02-04 00:31:00,20.8,19.1,29.72,NW,315,0.0,0.0,93,0.00,OVC,,0.00,WeatherDisplay:10.37,2013-02-04 05:31:00,
2013-02-04 00:36:00,20.6,18.9,29.72,NW,315,0.0,0.0,93,0.00,OVC,,0.00,WeatherDisplay:10.37,2013-02-04 05:36:00,
2013-02-04 00:41:00,20.7,19.0,29.72,NW,315,0.0,0.0,93,0.00,OVC,,0.00,WeatherDisplay:10.37,2013-02-04 05:41:00,
2013-02-04 00:46:00,20.7,19.0,29.72,NW,315,0.0,0.0,93,0.00,OVC,,0.00,WeatherDisplay:10.37,2013-02-04 05:46:00,
2013-02-04 00:51:00,20.6,18.9,29.72,NW,315,0.0,0.0,93,0.00,OVC,,0.00,WeatherDisplay:10.37,2013-02-04 05:51:00,
2013-02-04 00:56:00,20.3,18.6,29.72,NW,315,0.0,0.0,93,0.00,OVC,,0.00,WeatherDisplay:10.37,2013-02-04 05:56:00,
2013-02-04 01:01:00,19.9,18.2,29.72,NW,315,0.0,0.0,93,0.00,OVC,,0.00,WeatherDisplay:10.37,2013-02-04 06:01:00,
2013-02-04 01:06:00,19.4,17.7,29.72,NW,315,0.0,0.0,93,0.00,OVC,,0.00,WeatherDisplay:10.37,2013-02-04 06:06:00,
2013-02-04 01:11:00,18.9,17.2,29.72,NW,315,0.0,0.0,93,0.00,OVC,,0.00,WeatherDisplay:10.37,2013-02-04 06:11:00,
2013-02-04 01:16:00,18.6,16.9,29.72,NW,315,0.0,0.0,93,0.00,OVC,,0.00,WeatherDisplay:10.37,2013-02-04 06:16:00,
2013-02-04 01:21:00,18.0,16.3,29.72,NW,315,0.0,0.0,93,0.00,OVC,,0.00,WeatherDisplay:10.37,2013-02-04 06:21:00,
2013-02-04 01:26:00,17.6,15.9,29.71,NW,315,0.0,0.0,93,0.00,OVC,,0.00,WeatherDisplay:10.37,2013-02-04 06:26:00,
2013-02-04 01:32:00,17.2,15.5,29.71,NW,315,0.0,0.0,93,0.00,OVC,,0.00,WeatherDisplay:10.37,2013-02-04 06:32:00,
2013-02-04 01:37:00,17.0,15.3,29.71,NW,315,0.0,0.0,93,0.00,OVC,,0.00,WeatherDisplay:10.37,2013-02-04 06:37:00,
2013-02-04 01:42:00,16.9,15.2,29.71,NW,315,0.0,0.0,93,0.00,OVC,,0.00,WeatherDisplay:10.37,2013-02-04 06:42:00,
2013-02-04 01:47:00,17.0,15.3,29.71,NW,315,0.0,0.0,93,0.00,OVC,,0.00,WeatherDisplay:10.37,2013-02-04 06:47:00,
2013-02-04 01:52:00,17.5,15.8,29.71,NNW,337,0.3,2.3,93,0.00,OVC,,0.00,WeatherDisplay:10.37,2013-02-04 06:52:00,
2013-02-04 01:57:00,17.5,15.8,29.71,NNW,337,0.0,0.0,93,0.00,OVC,,0.00,WeatherDisplay:10.37,2013-02-04 06:57:00,
2013-02-04 02:02:00,17.6,15.9,29.71,WSW,247,0.0,0.0,93,0.00,FEW,,0.00,WeatherDisplay:10.37,2013-02-04 07:02:00,
2013-02-04 02:07:00,17.8,16.1,29.71,WSW,247,0.2,1.2,93,0.00,FEW,,0.00,WeatherDisplay:10.37,2013-02-04 07:07:00,
2013-02-04 02:12:00,18.2,16.5,29.71,West,270,0.2,1.2,93,0.00,FEW,,0.00,WeatherDisplay:10.37,2013-02-04 07:12:00,
2013-02-04 02:17:00,18.1,16.4,29.71,West,270,0.1,1.2,93,0.00,FEW,,0.00,WeatherDisplay:10.37,2013-02-04 07:17:00,
2013-02-04 02:22:00,17.9,16.2,29.71,NW,315,0.0,1.2,93,0.00,FEW,,0.00,WeatherDisplay:10.37,2013-02-04 07:22:00,
2013-02-04 02:27:00,17.7,16.0,29.71,West,270,0.6,2.3,93,0.00,FEW,,0.00,WeatherDisplay:10.37,2013-02-04 07:27:00,
2013-02-04 02:32:00,17.8,16.1,29.71,WSW,247,1.1,3.5,93,0.00,FEW,,0.00,WeatherDisplay:10.37,2013-02-04 07:32:00,
2013-02-04 02:37:00,17.9,16.2,29.71,West,270,0.4,3.6,93,0.00,FEW,,0.00,WeatherDisplay:10.37,2013-02-04 07:37:00,
2013-02-04 02:42:00,18.4,16.5,29.71,WNW,292,0.7,2.3,92,0.00,FEW,,0.00,WeatherDisplay:10.37,2013-02-04 07:42:00,
2013-02-04 02:47:00,18.8,16.1,29.71,NNW,337,2.0,3.5,89,0.00,FEW,,0.00,WeatherDisplay:10.37,2013-02-04 07:47:00,
2013-02-04 02:52:00,18.9,15.9,29.71,NNW,337,2.0,2.3,88,0.00,FEW,,0.00,WeatherDisplay:10.37,2013-02-04 07:52:00,
2013-02-04 02:57:00,18.7,15.7,29.71,NNW,337,1.1,2.3,88,0.00,FEW,,0.00,WeatherDisplay:10.37,2013-02-04 07:57:00,
2013-02-04 03:02:00,18.3,15.6,29.70,NNW,337,0.5,2.4,89,0.00,CLR,,0.00,WeatherDisplay:10.37,2013-02-04 08:02:00,
2013-02-04 03:07:00,18.0,15.3,29.70,WSW,247,0.4,2.3,89,0.00,CLR,,0.00,WeatherDisplay:10.37,2013-02-04 08:07:00,
2013-02-04 03:12:00,18.0,15.0,29.70,West,270,1.3,2.4,88,0.00,CLR,,0.00,WeatherDisplay:10.37,2013-02-04 08:12:00,
2013-02-04 03:17:00,18.3,14.8,29.70,NNW,337,3.0,5.8,86,0.00,CLR,,0.00,WeatherDisplay:10.37,2013-02-04 08:17:00,
2013-02-04 03:22:00,18.7,14.7,29.70,WSW,247,1.1,2.3,84,0.00,CLR,,0.00,WeatherDisplay:10.37,2013-02-04 08:22:00,
2013-02-04 03:27:00,18.6,14.6,29.70,West,270,0.9,2.3,84,0.00,CLR,,0.00,WeatherDisplay:10.37,2013-02-04 08:27:00,
2013-02-04 03:32:00,18.5,14.5,29.70,NW,315,1.4,2.4,84,0.00,CLR,,0.00,WeatherDisplay:10.37,2013-02-04 08:32:00,
2013-02-04 03:37:00,18.8,14.5,29.70,North,360,1.6,2.3,83,0.00,CLR,,0.00,WeatherDisplay:10.37,2013-02-04 08:37:00,
2013-02-04 03:42:00,18.7,14.4,29.71,West,270,1.4,2.3,83,0.00,CLR,,0.00,WeatherDisplay:10.37,2013-02-04 08:42:00,
2013-02-04 03:47:00,18.9,14.0,29.71,NW,315,2.8,6.9,81,0.00,CLR,,0.00,WeatherDisplay:10.37,2013-02-04 08:47:00,
2013-02-04 03:52:00,18.9,14.0,29.71,SSW,202,3.5,6.9,81,0.00,CLR,,0.00,WeatherDisplay:10.37,2013-02-04 08:52:00,
2013-02-04 03:57:00,19.3,13.9,29.71,NW,315,2.6,3.5,79,0.00,CLR,,0.00,WeatherDisplay:10.37,2013-02-04 08:57:00,
2013-02-04 04:02:00,19.3,13.9,29.71,West,270,2.4,4.6,79,0.00,CLR,,0.00,WeatherDisplay:10.37,2013-02-04 09:02:00,
2013-02-04 04:07:00,19.1,13.9,29.71,WNW,292,1.2,2.3,80,0.00,CLR,,0.00,WeatherDisplay:10.37,2013-02-04 09:07:00,
2013-02-04 04:12:00,18.8,13.7,29.71,WSW,247,0.4,2.3,80,0.00,CLR,,0.00,WeatherDisplay:10.37,2013-02-04 09:12:00,
2013-02-04 04:17:00,18.6,13.7,29.71,West,270,1.8,2.4,81,0.00,CLR,,0.00,WeatherDisplay:10.37,2013-02-04 09:17:00,
2013-02-04 04:22:00,18.6,13.7,29.71,WNW,292,1.7,2.3,81,0.00,CLR,,0.00,WeatherDisplay:10.37,2013-02-04 09:22:00,
2013-02-04 04:27:00,18.5,13.6,29.71,NW,315,2.2,2.4,81,0.00,CLR,,0.00,WeatherDisplay:10.37,2013-02-04 09:27:00,
2013-02-04 04:32:00,18.5,13.6,29.72,West,270,2.1,3.6,81,0.00,CLR,,0.00,WeatherDisplay:10.37,2013-02-04 09:32:00,
2013-02-04 04:37:00,18.7,13.8,29.72,West,270,1.7,2.4,81,0.00,CLR,,0.00,WeatherDisplay:10.37,2013-02-04 09:37:00,
2013-02-04 04:42:00,18.8,13.7,29.72,NW,315,1.9,2.4,80,0.00,CLR,,0.00,WeatherDisplay:10.37,2013-02-04 09:42:00,
2013-02-04 04:47:00,18.9,13.7,29.72,NNE,22,1.8,2.3,80,0.00,CLR,,0.00,WeatherDisplay:10.37,2013-02-04 09:47:00,
2013-02-04 04:52:00,18.9,13.7,29.72,WNW,292,2.2,2.3,80,0.00,CLR,,0.00,WeatherDisplay:10.37,2013-02-04 09:52:00,
2013-02-04 04:57:00,19.2,13.8,29.72,WNW,292,3.4,6.9,79,0.00,CLR,,0.00,WeatherDisplay:10.37,2013-02-04 09:57:00,
2013-02-04 05:02:00,19.3,13.9,29.72,West,270,1.6,2.4,79,0.00,CLR,,0.00,WeatherDisplay:10.37,2013-02-04 10:02:00,
2013-02-04 05:07:00,19.4,13.7,29.72,West,270,1.8,2.3,78,0.00,CLR,,0.00,WeatherDisplay:10.37,2013-02-04 10:07:00,
2013-02-04 05:12:00,19.3,13.9,29.73,West,270,2.3,2.4,79,0.00,FEW,,0.00,WeatherDisplay:10.37,2013-02-04 10:12:00,
2013-02-04 05:17:00,19.2,13.5,29.73,WNW,292,3.1,4.6,78,0.00,FEW,,0.00,WeatherDisplay:10.37,2013-02-04 10:17:00,
2013-02-04 05:22:00,19.2,13.5,29.73,West,270,2.0,6.9,78,0.00,FEW,,0.00,WeatherDisplay:10.37,2013-02-04 10:22:00,
2013-02-04 05:27:00,19.0,13.6,29.73,NW,315,2.4,4.6,79,0.00,FEW,,0.00,WeatherDisplay:10.37,2013-02-04 10:27:00,
2013-02-04 05:32:00,19.1,13.4,29.73,NW,315,3.2,5.8,78,0.00,FEW,,0.00,WeatherDisplay:10.37,2013-02-04 10:32:00,
2013-02-04 05:37:00,19.1,13.7,29.73,West,270,2.6,3.5,79,0.00,FEW,,0.00,WeatherDisplay:10.37,2013-02-04 10:37:00,
2013-02-04 05:42:00,19.2,13.5,29.73,West,270,3.6,4.8,78,0.00,FEW,,0.00,WeatherDisplay:10.37,2013-02-04 10:42:00,
2013-02-04 05:47:00,19.4,13.7,29.73,WNW,292,3.7,9.2,78,0.00,FEW,,0.00,WeatherDisplay:10.37,2013-02-04 10:47:00,
2013-02-04 05:52:00,19.4,13.7,29.73,WNW,292,3.7,6.9,78,0.00,FEW,,0.00,WeatherDisplay:10.37,2013-02-04 10:52:00,
2013-02-04 05:57:00,19.3,13.6,29.74,NW,315,2.4,4.6,78,0.00,FEW,,0.00,WeatherDisplay:10.37,2013-02-04 10:57:00,
2013-02-04 06:02:00,19.2,13.5,29.74,West,270,2.5,5.8,78,0.00,FEW,,0.00,WeatherDisplay:10.37,2013-02-04 11:02:00,
2013-02-04 06:07:00,19.2,13.5,29.74,WSW,247,3.9,4.6,78,0.00,FEW,,0.00,WeatherDisplay:10.37,2013-02-04 11:07:00,
2013-02-04 06:12:00,19.2,13.8,29.74,West,270,2.4,4.6,79,0.00,FEW,,0.00,WeatherDisplay:10.37,2013-02-04 11:12:00,
2013-02-04 06:17:00,18.9,13.7,29.74,West,270,3.0,4.6,80,0.00,FEW,,0.00,WeatherDisplay:10.37,2013-02-04 11:17:00,
2013-02-04 06:22:00,18.9,13.7,29.75,North,360,2.2,3.5,80,0.00,FEW,,0.00,WeatherDisplay:10.37,2013-02-04 11:22:00,
2013-02-04 06:27:00,18.8,13.7,29.75,West,270,2.3,4.6,80,0.00,FEW,,0.00,WeatherDisplay:10.37,2013-02-04 11:27:00,
2013-02-04 06:32:00,18.7,13.8,29.75,NW,315,2.7,6.9,81,0.00,FEW,,0.00,WeatherDisplay:10.37,2013-02-04 11:32:00,
2013-02-04 06:37:00,18.6,13.7,29.75,NW,315,1.6,4.8,81,0.00,FEW,,0.00,WeatherDisplay:10.37,2013-02-04 11:37:00,
2013-02-04 06:42:00,18.6,13.7,29.76,WNW,292,2.0,2.3,81,0.00,FEW,,0.00,WeatherDisplay:10.37,2013-02-04 11:42:00,
2013-02-04 06:47:00,18.5,13.9,29.76,WNW,292,3.0,6.9,82,0.00,FEW,,0.00,WeatherDisplay:10.37,2013-02-04 11:47:00,
2013-02-04 06:52:00,18.4,14.1,29.76,NE,45,2.1,5.8,83,0.00,FEW,,0.00,WeatherDisplay:10.37,2013-02-04 11:52:00,
2013-02-04 06:57:00,18.7,14.1,29.76,West,270,2.2,4.6,82,0.00,FEW,,0.00,WeatherDisplay:10.37,2013-02-04 11:57:00,
2013-02-04 07:02:00,18.4,14.4,29.76,West,270,2.0,2.3,84,0.00,CLR,,0.00,WeatherDisplay:10.37,2013-02-04 12:02:00,
2013-02-04 07:07:00,18.5,14.5,29.76,West,270,2.5,3.5,84,0.00,CLR,,0.00,WeatherDisplay:10.37,2013-02-04 12:07:00,
2013-02-04 07:12:00,18.7,14.4,29.77,WSW,247,2.7,4.6,83,0.00,CLR,,0.00,WeatherDisplay:10.37,2013-02-04 12:12:00,
2013-02-04 07:17:00,18.7,14.4,29.77,WNW,292,3.9,4.6,83,0.00,CLR,,0.00,WeatherDisplay:10.37,2013-02-04 12:17:00,
2013-02-04 07:22:00,18.9,14.6,29.77,WNW,292,2.1,3.5,83,0.00,CLR,,0.00,WeatherDisplay:10.37,2013-02-04 12:22:00,
2013-02-04 07:27:00,19.1,14.5,29.77,WSW,247,3.1,6.9,82,0.00,CLR,,0.00,WeatherDisplay:10.37,2013-02-04 12:27:00,
2013-02-04 07:32:00,19.2,14.6,29.77,WNW,292,2.8,3.6,82,0.00,CLR,,0.00,WeatherDisplay:10.37,2013-02-04 12:32:00,
2013-02-04 07:37:00,19.5,14.6,29.77,North,360,4.3,4.6,81,0.00,CLR,,0.00,WeatherDisplay:10.37,2013-02-04 12:37:00,
2013-02-04 07:42:00,19.7,14.8,29.77,West,270,3.0,4.6,81,0.00,CLR,,0.00,WeatherDisplay:10.37,2013-02-04 12:42:00,
2013-02-04 07:47:00,19.9,14.7,29.77,WSW,247,2.6,5.8,80,0.00,CLR,,0.00,WeatherDisplay:10.37,2013-02-04 12:47:00,
2013-02-04 07:52:00,20.0,14.8,29.77,West,270,1.8,5.8,80,0.00,CLR,,0.00,WeatherDisplay:10.37,2013-02-04 12:52:00,
2013-02-04 07:57:00,20.3,15.1,29.78,WNW,292,3.6,5.8,80,0.00,CLR,,0.00,WeatherDisplay:10.37,2013-02-04 12:57:00,
2013-02-04 08:02:00,20.8,15.3,29.78,North,360,2.8,4.6,79,0.00,CLR,,0.00,WeatherDisplay:10.37,2013-02-04 13:02:00,
2013-02-04 08:07:00,21.1,15.3,29.78,West,270,4.0,6.9,78,0.00,CLR,,0.00,WeatherDisplay:10.37,2013-02-04 13:07:00,
2013-02-04 08:12:00,21.3,15.5,29.77,North,360,4.1,6.9,78,0.00,CLR,,0.00,WeatherDisplay:10.37,2013-02-04 13:12:00,
2013-02-04 08:18:00,21.5,15.7,29.77,WNW,292,2.8,6.9,78,0.00,CLR,,0.00,WeatherDisplay:10.37,2013-02-04 13:18:00,
2013-02-04 08:23:00,21.9,15.8,29.76,West,270,2.4,3.5,77,0.00,CLR,,0.00,WeatherDisplay:10.37,2013-02-04 13:23:00,
2013-02-04 08:28:00,22.2,15.8,29.77,WNW,292,3.6,6.9,76,0.00,CLR,,0.00,WeatherDisplay:10.37,2013-02-04 13:28:00,
2013-02-04 08:33:00,22.5,15.5,29.77,West,270,7.4,11.5,74,0.00,CLR,,0.00,WeatherDisplay:10.37,2013-02-04 13:33:00,
2013-02-04 08:38:00,22.8,15.4,29.77,West,270,3.4,5.8,73,0.00,CLR,,0.00,WeatherDisplay:10.37,2013-02-04 13:38:00,
2013-02-04 08:43:00,23.0,15.0,29.76,WNW,292,4.2,10.4,71,0.00,CLR,,0.00,WeatherDisplay:10.37,2013-02-04 13:43:00,
2013-02-04 08:48:00,23.2,15.2,29.77,West,270,3.7,6.9,71,0.00,CLR,,0.00,WeatherDisplay:10.37,2013-02-04 13:48:00,
2013-02-04 08:53:00,23.3,15.3,29.77,NW,315,2.5,4.8,71,0.00,CLR,,0.00,WeatherDisplay:10.37,2013-02-04 13:53:00,
2013-02-04 08:58:00,23.5,14.1,29.77,WNW,292,8.2,11.5,67,0.00,CLR,,0.00,WeatherDisplay:10.37,2013-02-04 13:58:00,
2013-02-04 09:03:00,23.9,14.9,29.77,WSW,247,4.8,5.8,68,0.00,CLR,,0.00,WeatherDisplay:10.37,2013-02-04 14:03:00,
2013-02-04 09:08:00,24.1,14.4,29.77,NW,315,4.7,8.1,66,0.00,CLR,,0.00,WeatherDisplay:10.37,2013-02-04 14:08:00,
2013-02-04 09:13:00,24.2,14.1,29.77,West,270,4.6,10.8,65,0.00,CLR,,0.00,WeatherDisplay:10.37,2013-02-04 14:13:00,
2013-02-04 09:18:00,24.5,14.1,29.78,WSW,247,3.4,5.8,64,0.00,CLR,,0.00,WeatherDisplay:10.37,2013-02-04 14:18:00,
2013-02-04 09:23:00,24.8,14.0,29.78,West,270,4.2,8.4,63,0.00,CLR,,0.00,WeatherDisplay:10.37,2013-02-04 14:23:00,
2013-02-04 09:28:00,24.9,13.3,29.78,NNW,337,7.4,15.0,61,0.00,CLR,,0.00,WeatherDisplay:10.37,2013-02-04 14:28:00,
2013-02-04 09:33:00,24.9,13.3,29.78,West,270,6.9,16.1,61,0.00,CLR,,0.00,WeatherDisplay:10.37,2013-02-04 14:33:00,
2013-02-04 09:38:00,25.2,14.4,29.78,West,270,6.6,19.6,63,0.00,CLR,,0.00,WeatherDisplay:10.37,2013-02-04 14:38:00,
2013-02-04 09:43:00,25.4,13.1,29.78,West,270,9.2,12.7,59,0.00,CLR,,0.00,WeatherDisplay:10.37,2013-02-04 14:43:00,
2013-02-04 09:48:00,25.7,14.1,29.78,North,360,5.3,9.2,61,0.00,CLR,,0.00,WeatherDisplay:10.37,2013-02-04 14:48:00,
2013-02-04 09:53:00,25.6,13.2,29.78,WNW,292,7.6,15.0,59,0.00,CLR,,0.00,WeatherDisplay:10.37,2013-02-04 14:53:00,
2013-02-04 09:58:00,25.9,13.1,29.78,WNW,292,6.9,12.7,58,0.00,CLR,,0.00,WeatherDisplay:10.37,2013-02-04 14:58:00,
2013-02-04 10:03:00,25.7,12.6,29.78,WNW,292,9.2,19.6,57,0.00,CLR,,0.00,WeatherDisplay:10.37,2013-02-04 15:03:00,
2013-02-04 10:08:00,25.9,12.7,29.78,West,270,6.1,15.0,57,0.00,CLR,,0.00,WeatherDisplay:10.37,2013-02-04 15:08:00,
2013-02-04 10:13:00,26.5,12.9,29.77,NW,315,6.2,12.7,56,0.00,FEW,,0.00,WeatherDisplay:10.37,2013-02-04 15:13:00,
2013-02-04 10:18:00,26.7,13.5,29.77,NW,315,7.4,12.7,57,0.00,FEW,,0.00,WeatherDisplay:10.37,2013-02-04 15:18:00,
2013-02-04 10:23:00,26.7,13.1,29.77,West,270,8.2,13.2,56,0.00,FEW,,0.00,WeatherDisplay:10.37,2013-02-04 15:23:00,
2013-02-04 10:28:00,26.9,12.9,29.77,NW,315,3.0,4.8,55,0.00,FEW,,0.00,WeatherDisplay:10.37,2013-02-04 15:28:00,
2013-02-04 10:33:00,26.9,12.0,29.77,North,360,7.4,10.4,53,0.00,FEW,,0.00,WeatherDisplay:10.37,2013-02-04 15:33:00,
2013-02-04 10:38:00,26.8,11.9,29.77,West,270,4.8,8.1,53,0.00,FEW,,0.00,WeatherDisplay:10.37,2013-02-04 15:38:00,
2013-02-04 10:43:00,27.1,12.2,29.77,West,270,3.4,9.6,53,0.00,FEW,,0.00,WeatherDisplay:10.37,2013-02-04 15:43:00,
2013-02-04 10:48:00,27.9,13.0,29.77,West,270,4.8,8.1,53,0.00,FEW,,0.00,WeatherDisplay:10.37,2013-02-04 15:48:00,
2013-02-04 10:53:00,27.9,11.6,29.78,SW,225,7.2,10.4,50,0.00,FEW,,0.00,WeatherDisplay:10.37,2013-02-04 15:53:00,
2013-02-04 10:58:00,28.3,12.0,29.78,WSW,247,7.4,10.4,50,0.00,FEW,,0.00,WeatherDisplay:10.37,2013-02-04 15:58:00,
2013-02-04 11:03:00,28.4,11.6,29.78,WNW,292,6.9,10.4,49,0.00,SCT,,0.00,WeatherDisplay:10.37,2013-02-04 16:03:00,
2013-02-04 11:08:00,27.9,11.2,29.78,West,270,7.5,15.0,49,0.00,SCT,,0.00,WeatherDisplay:10.37,2013-02-04 16:08:00,
2013-02-04 11:13:00,28.0,10.3,29.78,North,360,8.2,15.0,47,0.00,SCT,,0.00,WeatherDisplay:10.37,2013-02-04 16:13:00,
2013-02-04 11:18:00,28.9,11.6,29.77,WNW,292,7.4,15.0,48,0.00,SCT,,0.00,WeatherDisplay:10.37,2013-02-04 16:18:00,
2013-02-04 11:23:00,28.5,10.8,29.78,North,360,6.6,11.5,47,0.00,SCT,,0.00,WeatherDisplay:10.37,2013-02-04 16:23:00,
2013-02-04 11:28:00,28.5,10.3,29.77,West,270,7.3,10.4,46,0.00,SCT,,0.00,WeatherDisplay:10.37,2013-02-04 16:28:00,
2013-02-04 11:33:00,28.6,10.4,29.77,North,360,9.0,17.3,46,0.00,SCT,,0.00,WeatherDisplay:10.37,2013-02-04 16:33:00,
2013-02-04 11:38:00,28.7,10.5,29.78,WSW,247,8.8,12.7,46,0.00,SCT,,0.00,WeatherDisplay:10.37,2013-02-04 16:38:00,
2013-02-04 11:43:00,27.9,9.3,29.77,WNW,292,6.3,12.7,45,0.00,SCT,,0.00,WeatherDisplay:10.37,2013-02-04 16:43:00,
2013-02-04 11:48:00,28.3,8.6,29.77,West,270,9.3,15.6,43,0.00,SCT,,0.00,WeatherDisplay:10.37,2013-02-04 16:48:00,
2013-02-04 11:53:00,28.8,9.1,29.77,West,270,8.1,17.3,43,0.00,SCT,,0.00,WeatherDisplay:10.37,2013-02-04 16:53:00,
2013-02-04 11:58:00,29.4,10.1,29.77,West,270,9.8,10.8,44,0.00,SCT,,0.00,WeatherDisplay:10.37,2013-02-04 16:58:00,
2013-02-04 12:03:00,28.8,9.1,29.77,West,270,6.7,8.1,43,0.00,BKN,,0.00,WeatherDisplay:10.37,2013-02-04 17:03:00,
2013-02-04 12:08:00,28.2,9.0,29.77,WNW,292,7.3,11.5,44,0.00,BKN,,0.00,WeatherDisplay:10.37,2013-02-04 17:08:00,
2013-02-04 12:13:00,28.1,9.9,29.77,West,270,4.6,8.1,46,0.00,BKN,,0.00,WeatherDisplay:10.37,2013-02-04 17:13:00,
2013-02-04 12:18:00,28.3,10.1,29.77,West,270,6.6,9.2,46,0.00,BKN,,0.00,WeatherDisplay:10.37,2013-02-04 17:18:00,
2013-02-04 12:23:00,28.5,10.3,29.77,WNW,292,5.7,15.0,46,0.00,BKN,,0.00,WeatherDisplay:10.37,2013-02-04 17:23:00,
2013-02-04 12:28:00,27.8,9.7,29.77,West,270,4.3,19.6,46,0.00,BKN,,0.00,WeatherDisplay:10.37,2013-02-04 17:28:00,
2013-02-04 12:33:00,27.4,9.3,29.76,WSW,247,9.6,16.1,46,0.00,BKN,,0.00,WeatherDisplay:10.37,2013-02-04 17:33:00,
2013-02-04 12:38:00,27.7,10.5,29.76,North,360,4.5,6.9,48,0.00,BKN,,0.00,WeatherDisplay:10.37,2013-02-04 17:38:00,
2013-02-04 12:43:00,28.8,11.6,29.76,WNW,292,6.1,15.0,48,0.00,BKN,,0.00,WeatherDisplay:10.37,2013-02-04 17:43:00,
2013-02-04 12:48:00,28.9,11.2,29.76,West,270,4.5,7.2,47,0.00,BKN,,0.00,WeatherDisplay:10.37,2013-02-04 17:48:00,
2013-02-04 12:53:00,28.9,10.7,29.75,WNW,292,8.6,15.0,46,0.00,BKN,,0.00,WeatherDisplay:10.37,2013-02-04 17:53:00,
2013-02-04 12:58:00,29.2,11.0,29.76,NW,315,4.6,6.9,46,0.00,BKN,,0.00,WeatherDisplay:10.37,2013-02-04 17:58:00,
2013-02-04 13:03:00,28.9,11.2,29.76,West,270,5.4,8.1,47,0.00,BKN,,0.00,WeatherDisplay:10.37,2013-02-04 18:03:00,
2013-02-04 13:08:00,28.1,11.4,29.77,West,270,5.0,12.0,49,0.00,BKN,,0.00,WeatherDisplay:10.37,2013-02-04 18:08:00,
2013-02-04 13:13:00,27.4,10.7,29.76,WSW,247,7.0,12.0,49,0.00,BKN,,0.00,WeatherDisplay:10.37,2013-02-04 18:13:00,
2013-02-04 13:18:00,26.9,11.2,29.77,WNW,292,6.4,9.2,51,0.00,BKN,,0.00,WeatherDisplay:10.37,2013-02-04 18:18:00,
2013-02-04 13:23:00,26.7,11.4,29.76,WNW,292,2.9,10.4,52,0.00,BKN,,0.00,WeatherDisplay:10.37,2013-02-04 18:23:00,
2013-02-04 13:28:00,26.9,10.7,29.76,NW,315,5.2,11.5,50,0.00,BKN,,0.00,WeatherDisplay:10.37,2013-02-04 18:28:00,
2013-02-04 13:33:00,27.3,11.1,29.76,NNW,337,4.6,8.1,50,0.00,BKN,,0.00,WeatherDisplay:10.37,2013-02-04 18:33:00,
2013-02-04 13:38:00,27.2,10.1,29.76,NNW,337,3.5,6.9,48,0.00,BKN,,0.00,WeatherDisplay:10.37,2013-02-04 18:38:00,
2013-02-04 13:43:00,27.4,9.8,29.76,WSW,247,7.2,10.4,47,0.00,BKN,,0.00,WeatherDisplay:10.37,2013-02-04 18:43:00,
2013-02-04 13:48:00,27.2,9.6,29.77,WNW,292,6.9,17.3,47,0.00,BKN,,0.00,WeatherDisplay:10.37,2013-02-04 18:48:00,
2013-02-04 13:53:00,27.1,10.0,29.77,West,270,4.4,18.4,48,0.00,BKN,,0.00,WeatherDisplay:10.37,2013-02-04 18:53:00,
2013-02-04 13:58:00,27.3,9.7,29.76,West,270,11.2,17.3,47,0.00,BKN,,0.00,WeatherDisplay:10.37,2013-02-04 18:58:00,
2013-02-04 14:03:00,27.2,10.1,29.76,NE,45,4.8,7.2,48,0.00,OVC,,0.00,WeatherDisplay:10.37,2013-02-04 19:03:00,
2013-02-04 14:08:00,27.2,9.6,29.76,WNW,292,4.2,8.1,47,0.00,OVC,,0.00,WeatherDisplay:10.37,2013-02-04 19:08:00,
2013-02-04 14:13:00,28.2,9.0,29.76,North,360,4.8,8.1,44,0.00,OVC,,0.00,WeatherDisplay:10.37,2013-02-04 19:13:00,
2013-02-04 14:18:00,29.5,8.7,29.77,NNE,22,7.0,15.0,41,0.00,OVC,,0.00,WeatherDisplay:10.37,2013-02-04 19:18:00,
2013-02-04 14:23:00,29.5,8.1,29.77,NW,315,5.7,10.4,40,0.00,OVC,,0.00,WeatherDisplay:10.37,2013-02-04 19:23:00,
2013-02-04 14:28:00,28.9,7.6,29.77,North,360,7.0,19.6,40,0.00,OVC,,0.00,WeatherDisplay:10.37,2013-02-04 19:28:00,
2013-02-04 14:33:00,28.9,8.6,29.77,WNW,292,7.0,12.7,42,0.00,OVC,,0.00,WeatherDisplay:10.37,2013-02-04 19:33:00,
2013-02-04 14:38:00,28.9,8.6,29.78,West,270,4.8,6.9,42,0.00,OVC,,0.00,WeatherDisplay:10.37,2013-02-04 19:38:00,
2013-02-04 14:43:00,28.7,7.9,29.78,West,270,8.2,10.8,41,0.00,OVC,,0.00,WeatherDisplay:10.37,2013-02-04 19:43:00,
2013-02-04 14:48:00,29.0,7.7,29.78,North,360,6.0,11.5,40,0.00,OVC,,0.00,WeatherDisplay:10.37,2013-02-04 19:48:00,
2013-02-04 14:53:00,29.2,7.8,29.78,North,360,10.5,15.6,40,0.00,OVC,,0.00,WeatherDisplay:10.37,2013-02-04 19:53:00,
2013-02-04 14:58:00,28.3,7.0,29.78,NW,315,11.0,18.4,40,0.00,OVC,,0.00,WeatherDisplay:10.37,2013-02-04 19:58:00,
2013-02-04 15:03:00,28.0,6.8,29.78,NW,315,8.3,23.0,40,0.00,BKN,,0.00,WeatherDisplay:10.37,2013-02-04 20:03:00,
2013-02-04 15:08:00,27.8,7.1,29.78,WNW,292,6.1,12.7,41,0.00,BKN,,0.00,WeatherDisplay:10.37,2013-02-04 20:08:00,
2013-02-04 15:13:00,27.9,7.2,29.78,WSW,247,7.2,18.4,41,0.00,BKN,,0.00,WeatherDisplay:10.37,2013-02-04 20:13:00,
2013-02-04 15:18:00,28.3,7.6,29.78,WNW,292,7.9,15.0,41,0.00,BKN,,0.00,WeatherDisplay:10.37,2013-02-04 20:18:00,
2013-02-04 15:23:00,28.3,7.6,29.78,West,270,9.6,10.4,41,0.00,BKN,,0.00,WeatherDisplay:10.37,2013-02-04 20:23:00,
2013-02-04 15:28:00,28.0,6.2,29.78,NNE,22,6.2,11.5,39,0.00,BKN,,0.00,WeatherDisplay:10.37,2013-02-04 20:28:00,
2013-02-04 15:33:00,28.0,6.8,29.78,NE,45,6.0,17.3,40,0.00,BKN,,0.00,WeatherDisplay:10.37,2013-02-04 20:33:00,
2013-02-04 15:38:00,27.9,6.1,29.78,NW,315,6.5,9.2,39,0.00,BKN,,0.00,WeatherDisplay:10.37,2013-02-04 20:38:00,
2013-02-04 15:43:00,27.8,6.6,29.78,WSW,247,10.2,17.3,40,0.00,BKN,,0.00,WeatherDisplay:10.37,2013-02-04 20:43:00,
2013-02-04 15:48:00,27.7,7.0,29.78,West,270,6.6,10.4,41,0.00,BKN,,0.00,WeatherDisplay:10.37,2013-02-04 20:48:00,
2013-02-04 15:53:00,27.5,7.4,29.78,West,270,8.7,12.7,42,0.00,BKN,,0.00,WeatherDisplay:10.37,2013-02-04 20:53:00,
2013-02-04 15:58:00,27.2,6.6,29.78,WNW,292,10.4,15.0,41,0.00,BKN,,0.00,WeatherDisplay:10.37,2013-02-04 20:58:00,
2013-02-04 16:03:00,26.9,7.4,29.78,SW,225,6.1,12.7,43,0.00,BKN,,0.00,WeatherDisplay:10.37,2013-02-04 21:03:00,
2013-02-04 16:08:00,26.8,7.3,29.78,NW,315,9.2,19.6,43,0.00,BKN,,0.00,WeatherDisplay:10.37,2013-02-04 21:08:00,
2013-02-04 16:13:00,26.6,7.6,29.79,NW,315,7.6,11.5,44,0.00,BKN,,0.00,WeatherDisplay:10.37,2013-02-04 21:13:00,
2013-02-04 16:18:00,26.4,7.9,29.78,NNE,22,7.6,16.1,45,0.00,BKN,,0.00,WeatherDisplay:10.37,2013-02-04 21:18:00,
2013-02-04 16:23:00,26.2,8.7,29.79,West,270,5.3,12.7,47,0.00,BKN,,0.00,WeatherDisplay:10.37,2013-02-04 21:23:00,
2013-02-04 16:28:00,25.9,8.9,29.80,West,270,6.1,10.4,48,0.00,BKN,,0.00,WeatherDisplay:10.37,2013-02-04 21:28:00,
2013-02-04 16:33:00,25.9,9.3,29.80,NNW,337,5.8,10.4,49,0.00,BKN,,0.00,WeatherDisplay:10.37,2013-02-04 21:33:00,
2013-02-04 16:38:00,25.7,8.7,29.80,West,270,5.8,10.4,48,0.00,BKN,,0.00,WeatherDisplay:10.37,2013-02-04 21:38:00,
2013-02-04 16:43:00,25.6,8.1,29.80,NW,315,10.3,23.0,47,0.00,BKN,,0.00,WeatherDisplay:10.37,2013-02-04 21:43:00,
2013-02-04 16:48:00,25.5,8.5,29.80,NW,315,6.9,9.2,48,0.00,BKN,,0.00,WeatherDisplay:10.37,2013-02-04 21:48:00,
2013-02-04 16:53:00,25.5,8.0,29.80,NW,315,6.3,8.1,47,0.00,BKN,,0.00,WeatherDisplay:10.37,2013-02-04 21:53:00,
2013-02-04 16:58:00,25.4,8.4,29.81,WSW,247,2.6,4.6,48,0.00,BKN,,0.00,WeatherDisplay:10.37,2013-02-04 21:58:00,
2013-02-04 17:03:00,25.2,9.1,29.81,West,270,5.7,10.4,50,0.00,FEW,,0.00,WeatherDisplay:10.37,2013-02-04 22:03:00,
2013-02-04 17:08:00,25.1,8.6,29.81,WNW,292,3.4,6.9,49,0.00,FEW,,0.00,WeatherDisplay:10.37,2013-02-04 22:08:00,
2013-02-04 17:13:00,24.9,8.0,29.82,NW,315,9.3,16.1,48,0.00,FEW,,0.00,WeatherDisplay:10.37,2013-02-04 22:13:00,
2013-02-04 17:18:00,24.9,8.0,29.82,West,270,5.7,5.8,48,0.00,FEW,,0.00,WeatherDisplay:10.37,2013-02-04 22:18:00,
2013-02-04 17:23:00,24.8,7.9,29.82,NW,315,3.3,4.6,48,0.00,FEW,,0.00,WeatherDisplay:10.37,2013-02-04 22:23:00,
2013-02-04 17:28:00,24.7,7.8,29.82,WSW,247,3.0,6.9,48,0.00,FEW,,0.00,WeatherDisplay:10.37,2013-02-04 22:28:00,
2013-02-04 17:33:00,24.7,8.2,29.82,West,270,6.5,10.4,49,0.00,FEW,,0.00,WeatherDisplay:10.37,2013-02-04 22:33:00,
2013-02-04 17:38:00,24.6,8.1,29.83,West,270,4.3,8.1,49,0.00,FEW,,0.00,WeatherDisplay:10.37,2013-02-04 22:38:00,
2013-02-04 17:43:00,24.5,8.5,29.83,NNW,337,3.4,8.1,50,0.00,FEW,,0.00,WeatherDisplay:10.37,2013-02-04 22:43:00,
2013-02-04 17:48:00,24.3,8.7,29.83,WNW,292,2.6,6.9,51,0.00,FEW,,0.00,WeatherDisplay:10.37,2013-02-04 22:48:00,
2013-02-04 17:53:00,24.1,8.6,29.84,WSW,247,2.3,2.4,51,0.00,FEW,,0.00,WeatherDisplay:10.37,2013-02-04 22:53:00,
2013-02-04 17:58:00,24.0,8.5,29.84,West,270,3.7,6.9,51,0.00,FEW,,0.00,WeatherDisplay:10.37,2013-02-04 22:58:00,
2013-02-04 18:03:00,23.8,9.1,29.84,WSW,247,2.0,2.3,53,0.00,CLR,,0.00,WeatherDisplay:10.37,2013-02-04 23:03:00,
2013-02-04 18:08:00,23.8,9.6,29.84,WNW,292,3.6,6.9,54,0.00,CLR,,0.00,WeatherDisplay:10.37,2013-02-04 23:08:00,
2013-02-04 18:13:00,23.6,10.2,29.84,WNW,292,3.6,8.4,56,0.00,CLR,,0.00,WeatherDisplay:10.37,2013-02-04 23:13:00,
2013-02-04 18:18:00,23.6,10.2,29.85,SW,225,3.0,4.6,56,0.00,CLR,,0.00,WeatherDisplay:10.37,2013-02-04 23:18:00,
2013-02-04 18:23:00,23.5,10.5,29.85,NNE,22,3.8,6.9,57,0.00,CLR,,0.00,WeatherDisplay:10.37,2013-02-04 23:23:00,
2013-02-04 18:28:00,23.5,10.5,29.85,WSW,247,3.2,5.8,57,0.00,CLR,,0.00,WeatherDisplay:10.37,2013-02-04 23:28:00,
2013-02-04 18:33:00,23.4,10.8,29.86,WNW,292,3.2,5.8,58,0.00,CLR,,0.00,WeatherDisplay:10.37,2013-02-04 23:33:00,
2013-02-04 18:38:00,23.3,10.7,29.86,West,270,1.7,2.4,58,0.00,CLR,,0.00,WeatherDisplay:10.37,2013-02-04 23:38:00,
2013-02-04 18:43:00,23.0,10.8,29.86,North,360,2.3,2.4,59,0.00,CLR,,0.00,WeatherDisplay:10.37,2013-02-04 23:43:00,
2013-02-04 18:48:00,22.9,10.3,29.86,West,270,2.9,5.8,58,0.00,CLR,,0.00,WeatherDisplay:10.37,2013-02-04 23:48:00,
2013-02-04 18:53:00,22.9,10.7,29.86,North,360,4.3,6.0,59,0.00,CLR,,0.00,WeatherDisplay:10.37,2013-02-04 23:53:00,
2013-02-04 18:58:00,22.9,10.7,29.86,West,270,5.1,8.1,59,0.00,CLR,,0.00,WeatherDisplay:10.37,2013-02-04 23:58:00,
2013-02-04 19:03:00,22.9,10.7,29.86,NW,315,2.8,4.6,59,0.00,CLR,,0.00,WeatherDisplay:10.37,2013-02-05 00:03:00,
2013-02-04 19:08:00,22.9,10.7,29.86,NW,315,2.4,2.4,59,0.00,CLR,,0.00,WeatherDisplay:10.37,2013-02-05 00:08:00,
2013-02-04 19:13:00,22.8,10.6,29.86,NNE,22,2.7,4.6,59,0.00,CLR,,0.00,WeatherDisplay:10.37,2013-02-05 00:13:00,
2013-02-04 19:18:00,22.9,10.3,29.86,West,270,7.0,15.0,58,0.00,CLR,,0.00,WeatherDisplay:10.37,2013-02-05 00:18:00,
2013-02-04 19:23:00,22.7,10.5,29.86,West,270,3.1,4.6,59,0.00,CLR,,0.00,WeatherDisplay:10.37,2013-02-05 00:23:00,
2013-02-04 19:28:00,22.7,10.5,29.86,West,270,4.5,11.5,59,0.00,CLR,,0.00,WeatherDisplay:10.37,2013-02-05 00:28:00,
2013-02-04 19:33:00,22.5,10.3,29.86,NNW,337,3.7,5.8,59,0.00,CLR,,0.00,WeatherDisplay:10.37,2013-02-05 00:33:00,
2013-02-04 19:38:00,22.5,10.3,29.86,WSW,247,3.2,8.1,59,0.00,CLR,,0.00,WeatherDisplay:10.37,2013-02-05 00:38:00,
2013-02-04 19:43:00,22.4,10.2,29.87,West,270,3.2,5.8,59,0.00,CLR,,0.00,WeatherDisplay:10.37,2013-02-05 00:43:00,
2013-02-04 19:48:00,22.4,10.2,29.87,West,270,2.3,6.9,59,0.00,CLR,,0.00,WeatherDisplay:10.37,2013-02-05 00:48:00,
2013-02-04 19:53:00,22.2,10.4,29.87,SW,225,1.9,2.4,60,0.00,CLR,,0.00,WeatherDisplay:10.37,2013-02-05 00:53:00,
2013-02-04 19:58:00,21.9,10.1,29.87,WNW,292,2.3,3.5,60,0.00,CLR,,0.00,WeatherDisplay:10.37,2013-02-05 00:58:00,
2013-02-04 20:03:00,21.8,10.0,29.87,NW,315,2.2,2.4,60,0.00,CLR,,0.00,WeatherDisplay:10.37,2013-02-05 01:03:00,
2013-02-04 20:08:00,21.7,10.3,29.87,WNW,292,1.1,2.4,61,0.00,CLR,,0.00,WeatherDisplay:10.37,2013-02-05 01:08:00,
2013-02-04 20:13:00,21.6,9.8,29.88,North,360,3.4,5.8,60,0.00,CLR,,0.00,WeatherDisplay:10.37,2013-02-05 01:13:00,
2013-02-04 20:18:00,21.5,10.1,29.88,SSW,202,3.7,3.7,61,0.00,CLR,,0.00,WeatherDisplay:10.37,2013-02-05 01:18:00,
2013-02-04 20:23:00,21.5,10.1,29.88,West,270,3.7,5.8,61,0.00,CLR,,0.00,WeatherDisplay:10.37,2013-02-05 01:23:00,
2013-02-04 20:28:00,21.6,9.8,29.88,West,270,1.4,2.3,60,0.00,CLR,,0.00,WeatherDisplay:10.37,2013-02-05 01:28:00,
2013-02-04 20:33:00,21.4,10.0,29.88,West,270,4.6,6.9,61,0.00,CLR,,0.00,WeatherDisplay:10.37,2013-02-05 01:33:00,
2013-02-04 20:38:00,21.4,10.4,29.88,North,360,3.3,5.8,62,0.00,CLR,,0.00,WeatherDisplay:10.37,2013-02-05 01:38:00,
2013-02-04 20:43:00,21.3,10.3,29.89,West,270,1.3,2.3,62,0.00,CLR,,0.00,WeatherDisplay:10.37,2013-02-05 01:43:00,
2013-02-04 20:48:00,21.0,10.4,29.90,NW,315,2.4,2.4,63,0.00,CLR,,0.00,WeatherDisplay:10.37,2013-02-05 01:48:00,
2013-02-04 20:53:00,20.9,10.3,29.90,WNW,292,0.4,2.3,63,0.00,CLR,,0.00,WeatherDisplay:10.37,2013-02-05 01:53:00,
2013-02-04 20:58:00,20.9,10.3,29.91,WSW,247,3.1,4.6,63,0.00,CLR,,0.00,WeatherDisplay:10.37,2013-02-05 01:58:00,
2013-02-04 21:03:00,20.8,10.2,29.91,West,270,2.4,3.5,63,0.00,CLR,,0.00,WeatherDisplay:10.37,2013-02-05 02:03:00,
2013-02-04 21:08:00,20.8,10.2,29.91,West,270,2.1,2.3,63,0.00,CLR,,0.00,WeatherDisplay:10.37,2013-02-05 02:08:00,
2013-02-04 21:13:00,20.6,10.0,29.91,West,270,2.1,2.3,63,0.00,CLR,,0.00,WeatherDisplay:10.37,2013-02-05 02:13:00,
2013-02-04 21:18:00,20.7,10.4,29.91,West,270,4.1,5.8,64,0.00,CLR,,0.00,WeatherDisplay:10.37,2013-02-05 02:18:00,
2013-02-04 21:23:00,20.8,10.2,29.91,North,360,1.5,4.6,63,0.00,CLR,,0.00,WeatherDisplay:10.37,2013-02-05 02:23:00,
2013-02-04 21:28:00,20.7,10.1,29.91,WNW,292,3.3,4.6,63,0.00,CLR,,0.00,WeatherDisplay:10.37,2013-02-05 02:28:00,
2013-02-04 21:33:00,20.7,10.1,29.91,West,270,1.9,6.9,63,0.00,CLR,,0.00,WeatherDisplay:10.37,2013-02-05 02:33:00,
2013-02-04 21:38:00,20.6,10.0,29.91,West,270,1.7,3.5,63,0.00,CLR,,0.00,WeatherDisplay:10.37,2013-02-05 02:38:00,
2013-02-04 21:43:00,20.3,9.7,29.91,NW,315,2.1,2.3,63,0.00,CLR,,0.00,WeatherDisplay:10.37,2013-02-05 02:43:00,
2013-02-04 21:48:00,20.2,10.0,29.91,WNW,292,2.5,4.6,64,0.00,CLR,,0.00,WeatherDisplay:10.37,2013-02-05 02:48:00,
2013-02-04 21:53:00,20.2,10.3,29.91,WNW,292,1.9,2.3,65,0.00,CLR,,0.00,WeatherDisplay:10.37,2013-02-05 02:53:00,
2013-02-04 21:58:00,19.9,10.0,29.91,WNW,292,2.2,3.5,65,0.00,CLR,,0.00,WeatherDisplay:10.37,2013-02-05 02:58:00,
2013-02-04 22:03:00,19.7,10.2,29.91,WNW,292,1.2,2.4,66,0.00,CLR,,0.00,WeatherDisplay:10.37,2013-02-05 03:03:00,
2013-02-04 22:08:00,19.8,9.9,29.91,WNW,292,1.9,2.4,65,0.00,CLR,,0.00,WeatherDisplay:10.37,2013-02-05 03:08:00,
2013-02-04 22:13:00,19.8,10.3,29.91,West,270,1.6,2.3,66,0.00,CLR,,0.00,WeatherDisplay:10.37,2013-02-05 03:13:00,
2013-02-04 22:18:00,19.6,10.4,29.91,WNW,292,1.2,2.3,67,0.00,CLR,,0.00,WeatherDisplay:10.37,2013-02-05 03:18:00,
2013-02-04 22:23:00,19.2,10.4,29.91,WNW,292,2.0,2.3,68,0.00,CLR,,0.00,WeatherDisplay:10.37,2013-02-05 03:23:00,
2013-02-04 22:28:00,18.8,10.3,29.91,WNW,292,1.4,2.3,69,0.00,CLR,,0.00,WeatherDisplay:10.37,2013-02-05 03:28:00,
2013-02-04 22:33:00,18.7,10.5,29.91,West,270,1.3,2.3,70,0.00,CLR,,0.00,WeatherDisplay:10.37,2013-02-05 03:33:00,
2013-02-04 22:38:00,18.5,10.3,29.91,NW,315,2.5,2.5,70,0.00,CLR,,0.00,WeatherDisplay:10.37,2013-02-05 03:38:00,
2013-02-04 22:43:00,18.6,10.4,29.91,WNW,292,1.8,2.4,70,0.00,CLR,,0.00,WeatherDisplay:10.37,2013-02-05 03:43:00,
2013-02-04 22:48:00,18.6,10.8,29.91,West,270,1.6,2.3,71,0.00,CLR,,0.00,WeatherDisplay:10.37,2013-02-05 03:48:00,
2013-02-04 22:53:00,18.7,10.5,29.91,WNW,292,2.7,4.6,70,0.00,CLR,,0.00,WeatherDisplay:10.37,2013-02-05 03:53:00,
2013-02-04 22:58:00,18.9,10.7,29.91,West,270,1.1,2.3,70,0.00,CLR,,0.00,WeatherDisplay:10.37,2013-02-05 03:58:00,
2013-02-04 23:03:00,18.9,10.4,29.91,WNW,292,2.5,3.5,69,0.00,FEW,,0.00,WeatherDisplay:10.37,2013-02-05 04:03:00,
2013-02-04 23:08:00,18.9,10.7,29.92,WSW,247,2.3,2.3,70,0.00,FEW,,0.00,WeatherDisplay:10.37,2013-02-05 04:08:00,
2013-02-04 23:13:00,18.9,10.4,29.92,West,270,1.6,2.3,69,0.00,FEW,,0.00,WeatherDisplay:10.37,2013-02-05 04:13:00,
2013-02-04 23:18:00,18.9,10.4,29.92,West,270,1.8,2.3,69,0.00,FEW,,0.00,WeatherDisplay:10.37,2013-02-05 04:18:00,
2013-02-04 23:23:00,19.2,10.0,29.92,West,270,3.0,4.6,67,0.00,FEW,,0.00,WeatherDisplay:10.37,2013-02-05 04:23:00,
2013-02-04 23:28:00,19.4,10.6,29.92,West,270,1.3,2.3,68,0.00,FEW,,0.00,WeatherDisplay:10.37,2013-02-05 04:28:00,
2013-02-04 23:33:00,19.5,10.3,29.92,West,270,1.7,2.4,67,0.00,FEW,,0.00,WeatherDisplay:10.37,2013-02-05 04:33:00,
2013-02-04 23:38:00,19.6,10.1,29.92,West,270,1.8,2.3,66,0.00,FEW,,0.00,WeatherDisplay:10.37,2013-02-05 04:38:00,
2013-02-04 23:43:00,19.7,10.2,29.93,NW,315,0.3,2.4,66,0.00,FEW,,0.00,WeatherDisplay:10.37,2013-02-05 04:43:00,
2013-02-04 23:48:00,19.7,10.2,29.93,WNW,292,0.4,2.3,66,0.00,FEW,,0.00,WeatherDisplay:10.37,2013-02-05 04:48:00,
2013-02-04 23:53:00,19.7,9.8,29.93,WNW,292,0.9,2.3,65,0.00,FEW,,0.00,WeatherDisplay:10.37,2013-02-05 04:53:00,
2013-02-04 23:58:00,19.9,10.0,29.93,West,270,2.4,4.6,65,0.00,FEW,,0.00,WeatherDisplay:10.37,2013-02-05 04:58:00,